createdAt,value
2018-07-06T00:02:08.400Z,1.53
2018-07-06T00:04:43.223Z,1.50
2018-07-06T00:07:17.576Z,1.73
2018-07-06T00:09:52.383Z,1.40
2018-07-06T00:12:27.094Z,1.60
2018-07-06T00:15:01.317Z,1.60
2018-07-06T00:17:35.677Z,1.40
2018-07-06T00:20:10.089Z,1.63
2018-07-06T00:22:44.611Z,1.53
2018-07-06T00:25:19.216Z,1.67
2018-07-06T00:27:53.652Z,1.60
2018-07-06T00:30:28.271Z,1.60
2018-07-06T00:33:02.500Z,1.60
2018-07-06T00:35:37.168Z,1.53
2018-07-06T00:38:11.696Z,1.57
2018-07-06T00:40:46.327Z,1.50
2018-07-06T00:43:20.680Z,1.90
2018-07-06T00:45:54.901Z,1.70
2018-07-06T00:48:29.114Z,1.70
2018-07-06T00:51:04.084Z,1.70
2018-07-06T00:53:38.399Z,1.60
2018-07-06T00:56:12.845Z,1.60
2018-07-06T00:58:47.507Z,1.80
2018-07-06T01:01:22.597Z,1.83
2018-07-06T01:03:57.189Z,1.57
2018-07-06T01:06:31.435Z,1.50
2018-07-06T01:09:05.740Z,1.70
2018-07-06T01:11:40.175Z,1.53
2018-07-06T01:14:14.852Z,1.83
2018-07-06T01:16:49.120Z,1.90
2018-07-06T01:19:23.807Z,1.70
2018-07-06T01:21:58.189Z,2.10
2018-07-06T01:24:32.823Z,2.00
2018-07-06T01:27:07.118Z,1.90
2018-07-06T01:29:41.488Z,1.80
2018-07-06T01:32:15.802Z,1.70
2018-07-06T01:34:50.738Z,1.70
2018-07-06T01:37:25.355Z,1.80
2018-07-06T01:39:59.484Z,1.63
2018-07-06T01:42:34.739Z,1.80
2018-07-06T01:45:08.835Z,1.77
2018-07-06T01:47:43.652Z,1.60
2018-07-06T01:50:18.569Z,1.70
2018-07-06T01:52:52.948Z,1.70
2018-07-06T01:55:27.839Z,1.77
2018-07-06T01:58:02.934Z,1.70
2018-07-06T02:00:37.072Z,1.80
2018-07-06T02:03:11.987Z,1.80
2018-07-06T02:05:46.469Z,1.60
2018-07-06T02:08:20.724Z,1.47
2018-07-06T02:10:54.984Z,1.83
2018-07-06T02:13:29.222Z,1.67
2018-07-06T02:16:05.228Z,1.70
2018-07-06T02:18:39.599Z,2.00
2018-07-06T02:21:14.200Z,2.10
2018-07-06T02:23:48.825Z,1.80
2018-07-06T02:26:23.191Z,1.77
2018-07-06T02:28:57.640Z,1.80
2018-07-06T02:31:31.644Z,1.70
2018-07-06T02:34:06.101Z,1.77
2018-07-06T02:36:40.383Z,1.80
2018-07-06T02:39:14.792Z,1.93
2018-07-06T02:41:49.111Z,2.00
2018-07-06T02:44:23.023Z,1.90
2018-07-06T02:46:57.560Z,1.93
2018-07-06T02:49:32.296Z,1.93
2018-07-06T02:52:06.375Z,2.00
2018-07-06T02:54:40.964Z,2.10
2018-07-06T02:57:15.689Z,1.80
2018-07-06T02:59:50.108Z,2.03
2018-07-06T03:02:24.632Z,1.83
2018-07-06T03:04:59.163Z,2.20
2018-07-06T03:07:33.784Z,2.00
2018-07-06T03:10:08.037Z,2.00
2018-07-06T03:12:42.339Z,1.93
2018-07-06T03:15:16.840Z,2.00
2018-07-06T03:17:51.073Z,1.80
2018-07-06T03:20:25.432Z,2.13
2018-07-06T03:22:59.826Z,2.17
2018-07-06T03:25:35.312Z,2.00
2018-07-06T03:28:09.170Z,2.20
2018-07-06T03:30:43.411Z,2.00
2018-07-06T03:33:17.584Z,1.90
2018-07-06T03:35:52.164Z,1.87
2018-07-06T03:38:26.587Z,1.80
2018-07-06T03:41:01.284Z,1.90
2018-07-06T03:43:35.782Z,1.87
2018-07-06T03:46:09.643Z,2.00
2018-07-06T03:48:43.671Z,1.87
2018-07-06T03:51:17.977Z,2.30
2018-07-06T03:53:52.276Z,2.30
2018-07-06T03:56:27.456Z,2.00
2018-07-06T03:59:02.180Z,2.50
2018-07-06T04:01:36.416Z,2.10
2018-07-06T04:04:12.734Z,2.17
2018-07-06T04:06:47.224Z,2.53
2018-07-06T04:09:21.799Z,2.17
2018-07-06T04:11:56.052Z,2.40
2018-07-06T04:14:30.468Z,2.27
2018-07-06T04:17:04.812Z,2.20
2018-07-06T04:19:39.311Z,2.70
2018-07-06T04:22:13.775Z,2.73
2018-07-06T04:24:48.300Z,2.43
2018-07-06T04:27:22.804Z,2.40
2018-07-06T04:29:57.207Z,2.80
2018-07-06T04:32:32.584Z,2.47
2018-07-06T04:35:07.139Z,2.17
2018-07-06T04:37:41.728Z,2.60
2018-07-06T04:40:16.040Z,2.70
2018-07-06T04:42:50.487Z,2.73
2018-07-06T04:45:24.962Z,2.93
2018-07-06T04:47:59.274Z,2.63
2018-07-06T04:50:33.956Z,3.00
2018-07-06T04:53:08.241Z,3.00
2018-07-06T04:55:42.852Z,2.97
2018-07-06T04:58:17.339Z,3.10
2018-07-06T05:00:52.004Z,3.10
2018-07-06T05:03:26.383Z,3.10
2018-07-06T05:06:00.942Z,2.90
2018-07-06T05:08:35.357Z,2.87
2018-07-06T05:11:10.088Z,3.10
2018-07-06T05:13:44.825Z,2.93
2018-07-06T05:16:19.161Z,2.90
2018-07-06T05:18:53.651Z,2.70
2018-07-06T05:21:28.284Z,3.00
2018-07-06T05:24:02.573Z,2.83
2018-07-06T05:26:37.226Z,3.10
2018-07-06T05:29:11.089Z,3.27
2018-07-06T05:31:45.736Z,2.63
2018-07-06T05:34:20.289Z,2.87
2018-07-06T05:36:55.021Z,3.20
2018-07-06T05:39:29.048Z,3.43
2018-07-06T05:42:03.652Z,2.60
2018-07-06T05:44:38.580Z,2.90
2018-07-06T05:47:13.120Z,2.73
2018-07-06T05:49:47.231Z,2.80
2018-07-06T05:52:21.815Z,2.73
2018-07-06T05:54:55.968Z,2.70
2018-07-06T05:57:30.206Z,2.40
2018-07-06T06:00:04.788Z,2.67
2018-07-06T06:02:39.063Z,2.50
2018-07-06T06:05:13.649Z,2.87
2018-07-06T06:07:41.835Z,2.70
2018-07-06T06:10:11.371Z,2.30
2018-07-06T06:12:40.505Z,2.57
2018-07-06T06:15:09.742Z,2.20
2018-07-06T06:17:38.749Z,3.07
2018-07-06T06:20:11.976Z,2.70
2018-07-06T06:22:40.639Z,2.30
2018-07-06T06:25:09.928Z,2.30
2018-07-06T06:27:38.946Z,2.07
2018-07-06T06:30:08.131Z,2.70
2018-07-06T06:32:37.107Z,2.20
2018-07-06T06:35:06.468Z,2.20
2018-07-06T06:37:35.943Z,2.20
2018-07-06T06:40:04.960Z,2.00
2018-07-06T06:42:33.853Z,2.00
2018-07-06T06:45:03.164Z,1.70
2018-07-06T06:47:31.947Z,2.07
2018-07-06T06:50:01.567Z,2.10
2018-07-06T06:52:30.950Z,1.67
2018-07-06T06:55:00.174Z,2.43
2018-07-06T06:57:30.024Z,1.80
2018-07-06T06:59:59.230Z,1.67
2018-07-06T07:02:28.060Z,1.60
2018-07-06T07:04:56.488Z,1.53
2018-07-06T07:07:25.684Z,1.93
2018-07-06T07:09:54.793Z,1.90
2018-07-06T07:12:24.020Z,1.80
2018-07-06T07:14:53.989Z,1.57
2018-07-06T07:17:23.135Z,1.80
2018-07-06T07:19:52.081Z,1.60
2018-07-06T07:22:21.456Z,1.90
2018-07-06T07:24:50.364Z,1.83
2018-07-06T07:27:19.707Z,1.87
2018-07-06T07:29:52.685Z,1.50
2018-07-06T07:32:22.072Z,1.50
2018-07-06T07:34:51.351Z,1.72
2018-07-06T07:37:20.748Z,2.10
2018-07-06T07:39:49.772Z,2.13
2018-07-06T07:42:19.284Z,2.40
2018-07-06T07:44:48.659Z,1.87
2018-07-06T07:47:18.417Z,1.47
2018-07-06T07:49:47.607Z,1.80
2018-07-06T07:52:22.124Z,1.60
2018-07-06T07:54:54.640Z,1.57
2018-07-06T07:57:24.540Z,1.33
2018-07-06T07:59:54.444Z,1.87
2018-07-06T08:02:23.243Z,1.97
2018-07-06T08:04:52.654Z,2.03
2018-07-06T08:07:21.956Z,1.87
2018-07-06T08:09:51.259Z,1.60
2018-07-06T08:12:19.982Z,2.13
2018-07-06T08:14:50.068Z,1.50
2018-07-06T08:17:19.076Z,1.70
2018-07-06T08:19:48.196Z,1.50
2018-07-06T08:22:17.987Z,2.17
2018-07-06T08:24:46.520Z,1.73
2018-07-06T08:27:15.299Z,2.00
2018-07-06T08:29:45.114Z,1.70
2018-07-06T08:32:14.196Z,2.10
2018-07-06T08:34:48.801Z,1.90
2018-07-06T08:37:26.579Z,1.98
2018-07-06T08:39:56.467Z,1.70
2018-07-06T08:42:26.944Z,1.90
2018-07-06T08:44:56.908Z,1.83
2018-07-06T08:47:26.519Z,1.77
2018-07-06T08:49:56.323Z,2.10
2018-07-06T08:52:25.696Z,1.72
2018-07-06T08:54:55.392Z,2.00
2018-07-06T08:57:25.840Z,1.92
2018-07-06T08:59:55.304Z,1.75
2018-07-06T09:02:24.579Z,1.82
2018-07-06T09:04:54.004Z,1.55
2018-07-06T09:07:23.573Z,1.90
2018-07-06T09:09:53.639Z,2.00
2018-07-06T09:12:22.726Z,1.70
2018-07-06T09:14:52.409Z,1.60
2018-07-06T09:17:21.958Z,1.60
2018-07-06T09:19:51.876Z,1.60
2018-07-06T09:22:21.036Z,1.90
2018-07-06T09:24:50.854Z,1.95
2018-07-06T09:27:20.030Z,1.60
2018-07-06T09:29:49.006Z,2.40
2018-07-06T09:32:18.227Z,1.67
2018-07-06T09:34:46.679Z,1.70
2018-07-06T09:37:15.736Z,1.60
2018-07-06T09:39:45.456Z,1.70
2018-07-06T09:42:15.065Z,1.90
2018-07-06T09:44:44.004Z,1.65
2018-07-06T09:47:13.521Z,1.80
2018-07-06T09:49:42.179Z,1.80
2018-07-06T09:52:11.275Z,1.65
2018-07-06T09:54:42.779Z,1.90
2018-07-06T09:57:11.712Z,1.80
2018-07-06T09:59:40.975Z,2.10
2018-07-06T10:02:09.545Z,2.10
2018-07-06T10:04:38.763Z,1.90
2018-07-06T10:07:08.648Z,2.02
2018-07-06T10:09:38.026Z,1.70
2018-07-06T10:12:07.543Z,1.90
2018-07-06T10:14:36.660Z,2.22
2018-07-06T10:17:06.104Z,1.77
2018-07-06T10:19:34.922Z,2.22
2018-07-06T10:22:03.648Z,1.87
2018-07-06T10:24:32.981Z,1.82
2018-07-06T10:27:01.936Z,1.75
2018-07-06T10:29:41.488Z,1.67
2018-07-06T10:32:22.379Z,1.80
2018-07-06T10:34:52.005Z,1.75
2018-07-06T10:37:21.459Z,1.90
2018-07-06T10:39:51.313Z,2.65
2018-07-06T10:42:21.149Z,1.98
2018-07-06T10:44:50.288Z,2.00
2018-07-06T10:47:19.394Z,2.17
2018-07-06T10:49:49.005Z,2.20
2018-07-06T10:52:18.032Z,1.80
2018-07-06T10:54:47.608Z,2.00
2018-07-06T10:57:16.815Z,2.10
2018-07-06T10:59:46.036Z,1.75
2018-07-06T11:02:15.024Z,2.00
2018-07-06T11:04:44.302Z,1.80
2018-07-06T11:07:13.059Z,1.70
2018-07-06T11:09:42.377Z,2.10
2018-07-06T11:12:11.619Z,1.80
2018-07-06T11:14:40.613Z,1.87
2018-07-06T11:17:10.510Z,1.77
2018-07-06T11:19:39.464Z,2.10
2018-07-06T11:22:08.156Z,1.90
2018-07-06T11:24:37.340Z,1.85
2018-07-06T11:27:06.695Z,2.10
2018-07-06T11:29:35.623Z,2.00
2018-07-06T11:32:04.707Z,1.77
2018-07-06T11:34:33.364Z,1.60
2018-07-06T11:37:02.572Z,2.00
2018-07-06T11:39:32.590Z,2.20
2018-07-06T11:42:01.598Z,2.10
2018-07-06T11:44:30.940Z,2.30
2018-07-06T11:47:00.213Z,2.00
2018-07-06T11:49:29.258Z,2.00
2018-07-06T11:51:58.255Z,1.70
2018-07-06T11:54:27.338Z,2.10
2018-07-06T11:56:56.067Z,1.80
2018-07-06T11:59:25.654Z,2.12
2018-07-06T12:01:55.449Z,1.70
2018-07-06T12:04:24.995Z,1.95
2018-07-06T12:06:53.724Z,1.90
2018-07-06T12:09:22.403Z,1.80
2018-07-06T12:11:51.612Z,2.17
2018-07-06T12:14:20.953Z,1.70
2018-07-06T12:16:49.983Z,1.72
2018-07-06T12:19:18.770Z,1.90
2018-07-06T12:21:47.844Z,2.30
2018-07-06T12:24:16.779Z,1.80
2018-07-06T12:26:45.727Z,1.70
2018-07-06T12:29:15.567Z,1.90
2018-07-06T12:31:44.876Z,2.00
2018-07-06T12:34:14.407Z,1.80
2018-07-06T12:36:43.627Z,1.98
2018-07-06T12:39:12.977Z,2.08
2018-07-06T12:41:42.144Z,1.80
2018-07-06T12:44:11.075Z,1.80
2018-07-06T12:46:40.089Z,1.75
2018-07-06T12:49:09.217Z,2.10
2018-07-06T12:51:38.385Z,1.75
2018-07-06T12:54:07.640Z,1.80
2018-07-06T12:56:37.133Z,1.55
2018-07-06T12:59:06.101Z,1.80
2018-07-06T13:01:35.418Z,1.65
2018-07-06T13:04:04.327Z,1.70
2018-07-06T13:06:33.772Z,1.72
2018-07-06T13:09:02.579Z,1.90
2018-07-06T13:11:31.817Z,1.85
2018-07-06T13:14:01.089Z,1.67
2018-07-06T13:16:30.088Z,1.80
2018-07-06T13:18:59.102Z,1.60
2018-07-06T13:21:28.115Z,1.85
2018-07-06T13:23:56.977Z,1.70
2018-07-06T13:26:26.254Z,1.77
2018-07-06T13:28:55.404Z,1.60
2018-07-06T13:31:24.272Z,2.00
2018-07-06T13:33:53.533Z,1.75
2018-07-06T13:36:22.744Z,1.85
2018-07-06T13:38:51.492Z,1.62
2018-07-06T13:41:20.479Z,1.72
2018-07-06T13:43:49.491Z,1.50
2018-07-06T13:46:18.460Z,1.70
2018-07-06T13:48:47.880Z,1.62
2018-07-06T13:51:17.148Z,1.70
2018-07-06T13:53:46.408Z,1.55
2018-07-06T13:56:15.680Z,1.87
2018-07-06T13:58:44.844Z,1.70
2018-07-06T14:01:13.518Z,1.60
2018-07-06T14:03:42.199Z,1.50
2018-07-06T14:06:11.570Z,1.80
2018-07-06T14:08:40.776Z,2.05
2018-07-06T14:11:10.072Z,1.60
2018-07-06T14:13:39.468Z,1.60
2018-07-06T14:16:08.784Z,1.87
2018-07-06T14:18:37.680Z,1.60
2018-07-06T14:21:06.886Z,1.92
2018-07-06T14:23:36.194Z,2.10
2018-07-06T14:26:05.472Z,1.85
2018-07-06T14:28:34.764Z,2.05
2018-07-06T14:31:03.792Z,1.67
2018-07-06T14:33:33.063Z,2.15
2018-07-06T14:36:02.514Z,2.05
2018-07-06T14:38:31.767Z,2.22
2018-07-06T14:41:01.241Z,2.15
2018-07-06T14:43:30.622Z,2.15
2018-07-06T14:46:00.244Z,2.00
2018-07-06T14:48:29.535Z,1.90
2018-07-06T14:50:58.808Z,2.12
2018-07-06T14:53:28.452Z,2.10
2018-07-06T14:55:57.379Z,2.00
2018-07-06T14:58:26.447Z,2.30
2018-07-06T15:00:55.751Z,2.60
2018-07-06T15:03:25.243Z,2.12
2018-07-06T15:05:54.256Z,2.30
2018-07-06T15:08:23.492Z,1.80
2018-07-06T15:10:52.660Z,2.00
2018-07-06T15:13:22.518Z,2.20
2018-07-06T15:15:51.780Z,1.92
2018-07-06T15:18:21.527Z,2.00
2018-07-06T15:20:50.372Z,2.35
2018-07-06T15:23:19.523Z,2.30
2018-07-06T15:25:48.848Z,2.27
2018-07-06T15:28:18.200Z,2.00
2018-07-06T15:30:47.824Z,2.47
2018-07-06T15:33:20.618Z,2.00
2018-07-06T15:35:49.800Z,2.10
2018-07-06T15:38:19.716Z,1.90
2018-07-06T15:40:49.119Z,2.10
2018-07-06T15:43:19.111Z,2.60
2018-07-06T15:45:49.067Z,2.10
2018-07-06T15:48:19.112Z,2.12
2018-07-06T15:50:49.075Z,3.30
2018-07-06T15:53:19.344Z,3.05
2018-07-06T15:55:48.564Z,2.42
2018-07-06T15:58:17.944Z,2.30
2018-07-06T16:00:47.573Z,2.15
2018-07-06T16:03:17.368Z,1.72
2018-07-06T16:05:46.745Z,2.20
2018-07-06T16:08:16.424Z,2.30
2018-07-06T16:10:45.995Z,2.17
2018-07-06T16:13:15.380Z,2.60
2018-07-06T16:15:44.680Z,2.10
2018-07-06T16:18:14.064Z,2.45
2018-07-06T16:20:43.523Z,2.17
2018-07-06T16:23:13.563Z,2.25
2018-07-06T16:25:42.867Z,2.30
2018-07-06T16:28:12.188Z,1.98
2018-07-06T16:30:41.388Z,2.10
2018-07-06T16:33:10.591Z,2.30
2018-07-06T16:35:39.824Z,2.08
2018-07-06T16:38:09.088Z,2.00
2018-07-06T16:40:38.475Z,2.00
2018-07-06T16:43:07.644Z,1.90
2018-07-06T16:45:37.429Z,2.08
2018-07-06T16:48:06.755Z,1.92
2018-07-06T16:50:36.237Z,2.10
2018-07-06T16:53:06.070Z,1.90
2018-07-06T16:55:35.501Z,1.90
2018-07-06T16:58:06.282Z,2.25
2018-07-06T17:00:35.767Z,2.02
2018-07-06T17:03:05.096Z,2.10
2018-07-06T17:05:34.488Z,2.12
2018-07-06T17:08:04.200Z,2.70
2018-07-06T17:10:33.571Z,2.30
2018-07-06T17:13:02.775Z,3.08
2018-07-06T17:15:32.107Z,2.67
2018-07-06T17:18:03.613Z,2.20
2018-07-06T17:20:33.521Z,1.87
2018-07-06T17:23:02.884Z,2.02
2018-07-06T17:25:32.817Z,2.10
2018-07-06T17:28:02.006Z,2.40
2018-07-06T17:30:31.848Z,2.22
2018-07-06T17:33:01.232Z,2.40
2018-07-06T17:35:30.235Z,2.22
2018-07-06T17:37:59.580Z,2.80
2018-07-06T17:40:29.283Z,2.08
2018-07-06T17:42:58.223Z,2.10
2018-07-06T17:45:27.583Z,2.40
2018-07-06T17:47:57.679Z,2.27
2018-07-06T17:50:27.642Z,2.70
2018-07-06T17:52:56.995Z,2.02
2018-07-06T17:55:26.208Z,2.17
2018-07-06T17:57:55.899Z,2.45
2018-07-06T18:00:25.112Z,2.37
2018-07-06T18:02:54.891Z,2.40
2018-07-06T18:05:24.211Z,2.30
2018-07-06T18:07:53.720Z,2.47
2018-07-06T18:10:23.404Z,2.40
2018-07-06T18:12:53.383Z,2.30
2018-07-06T18:15:22.835Z,1.92
2018-07-06T18:17:52.240Z,2.50
2018-07-06T18:20:21.595Z,2.50
2018-07-06T18:22:51.199Z,2.20
2018-07-06T18:25:20.508Z,2.33
2018-07-06T18:27:49.687Z,2.33
2018-07-06T18:30:19.120Z,2.60
2018-07-06T18:32:48.524Z,2.50
2018-07-06T18:35:17.856Z,2.40
2018-07-06T18:37:47.640Z,2.20
2018-07-06T18:40:18.209Z,2.60
2018-07-06T18:42:48.216Z,2.25
2018-07-06T18:45:17.367Z,2.17
2018-07-06T18:47:46.340Z,2.20
2018-07-06T18:50:15.944Z,2.22
2018-07-06T18:52:45.223Z,2.12
2018-07-06T18:55:15.037Z,2.33
2018-07-06T18:57:44.436Z,2.10
2018-07-06T19:00:13.472Z,2.30
2018-07-06T19:02:42.839Z,2.30
2018-07-06T19:05:12.076Z,2.47
2018-07-06T19:07:41.756Z,2.45
2018-07-06T19:10:10.796Z,2.20
2018-07-06T19:12:43.612Z,2.30
2018-07-06T19:15:13.068Z,2.12
2018-07-06T19:17:42.248Z,2.15
2018-07-06T19:20:12.291Z,2.17
2018-07-06T19:22:41.572Z,2.58
2018-07-06T19:25:10.547Z,1.92
2018-07-06T19:27:40.080Z,2.70
2018-07-06T19:30:09.406Z,2.40
2018-07-06T19:32:38.894Z,2.50
2018-07-06T19:35:08.220Z,2.90
2018-07-06T19:37:37.420Z,2.70
2018-07-06T19:40:07.057Z,2.75
2018-07-06T19:42:36.527Z,2.92
2018-07-06T19:45:05.746Z,2.60
2018-07-06T19:47:34.843Z,2.65
2018-07-06T19:50:05.708Z,2.52
2018-07-06T19:52:34.855Z,2.45
2018-07-06T19:55:04.175Z,2.70
2018-07-06T19:57:33.621Z,2.77
2018-07-06T20:00:06.537Z,2.90
2018-07-06T20:02:38.732Z,2.50
2018-07-06T20:05:08.521Z,2.45
2018-07-06T20:07:38.196Z,2.70
2018-07-06T20:10:07.431Z,2.62
2018-07-06T20:12:37.651Z,2.98
2018-07-06T20:15:06.992Z,2.92
2018-07-06T20:17:35.953Z,2.70
2018-07-06T20:20:05.164Z,3.08
2018-07-06T20:22:34.368Z,2.70
2018-07-06T20:25:04.624Z,3.00
2018-07-06T20:27:34.557Z,2.75
2018-07-06T20:30:03.848Z,2.90
2018-07-06T20:32:33.764Z,2.50
2018-07-06T20:35:02.850Z,2.70
2018-07-06T20:37:32.869Z,3.05
2018-07-06T20:40:02.315Z,2.75
2018-07-06T20:42:31.597Z,2.87
2018-07-06T20:45:01.317Z,3.00
2018-07-06T20:47:30.628Z,2.87
2018-07-06T20:50:00.030Z,2.95
2018-07-06T20:52:29.264Z,2.92
2018-07-06T20:54:59.140Z,2.60
2018-07-06T20:57:28.448Z,2.95
2018-07-06T20:59:57.747Z,2.80
2018-07-06T21:02:26.952Z,3.10
2018-07-06T21:04:56.663Z,2.80
2018-07-06T21:07:29.244Z,3.05
2018-07-06T21:09:58.873Z,2.90
2018-07-06T21:12:28.061Z,2.83
2018-07-06T21:14:57.056Z,3.52
2018-07-06T21:17:26.386Z,2.58
2018-07-06T21:19:55.672Z,3.00
2018-07-06T21:22:24.985Z,2.37
2018-07-06T21:24:54.632Z,2.77
2018-07-06T21:27:24.068Z,2.62
2018-07-06T21:29:55.208Z,2.22
2018-07-06T21:32:24.656Z,2.30
2018-07-06T21:34:53.816Z,2.20
2018-07-06T21:37:22.815Z,2.60
2018-07-06T21:39:52.635Z,2.42
2018-07-06T21:42:21.911Z,2.30
2018-07-06T21:44:51.782Z,2.13
2018-07-06T21:47:21.335Z,2.40
2018-07-06T21:49:51.404Z,2.20
2018-07-06T21:52:21.360Z,2.30
2018-07-06T21:54:51.347Z,2.77
2018-07-06T21:57:20.556Z,2.30
2018-07-06T21:59:53.235Z,2.73
2018-07-06T22:02:22.582Z,2.60
2018-07-06T22:04:51.943Z,2.75
2018-07-06T22:07:21.184Z,2.55
2018-07-06T22:09:50.153Z,2.90
2018-07-06T22:12:19.458Z,2.50
2018-07-06T22:14:48.820Z,2.63
2018-07-06T22:17:18.088Z,2.67
2018-07-06T22:19:47.283Z,2.72
2018-07-06T22:22:16.535Z,2.85
2018-07-06T22:24:45.881Z,2.70
2018-07-06T22:27:15.727Z,2.97
2018-07-06T22:29:45.164Z,2.70
2018-07-06T22:32:14.499Z,2.70
2018-07-06T22:34:43.784Z,3.02
2018-07-06T22:37:12.807Z,2.50
2018-07-06T22:39:42.675Z,2.95
2018-07-06T22:42:11.780Z,2.40
2018-07-06T22:44:40.752Z,2.60
2018-07-06T22:47:10.311Z,2.90
2018-07-06T22:49:40.103Z,2.80
2018-07-06T22:52:09.399Z,3.07
2018-07-06T22:54:39.825Z,3.23
2018-07-06T22:57:09.072Z,2.95
2018-07-06T22:59:38.980Z,2.60
2018-07-06T23:02:09.743Z,3.07
2018-07-06T23:04:38.944Z,3.10
2018-07-06T23:07:08.160Z,3.07
2018-07-06T23:09:37.148Z,2.80
2018-07-06T23:12:07.019Z,3.10
2018-07-06T23:14:36.361Z,2.97
2018-07-06T23:17:05.966Z,3.07
2018-07-06T23:19:35.724Z,3.03
2018-07-06T23:22:04.920Z,3.10
2018-07-06T23:24:33.984Z,2.90
2018-07-06T23:27:03.264Z,3.00
2018-07-06T23:29:32.776Z,2.93
2018-07-06T23:32:01.979Z,3.00
2018-07-06T23:34:31.308Z,3.23
2018-07-06T23:37:00.712Z,3.37
2018-07-06T23:39:31.108Z,2.93
2018-07-06T23:42:00.249Z,2.83
2018-07-06T23:44:29.544Z,3.00
2018-07-06T23:46:59.844Z,3.37
2018-07-06T23:49:29.153Z,2.80
2018-07-06T23:51:58.454Z,3.17
2018-07-06T23:54:27.580Z,2.90
2018-07-06T23:56:56.831Z,3.30
2018-07-06T23:59:26.292Z,3.40
